createdAt,value
2019-02-23T00:01:33.566Z,13.37
2019-02-23T00:04:04.572Z,10.73
2019-02-23T00:06:35.640Z,12.10
2019-02-23T00:09:07.252Z,12.27
2019-02-23T00:11:39.192Z,14.20
2019-02-23T00:14:10.022Z,13.37
2019-02-23T00:16:41.092Z,14.10
2019-02-23T00:19:11.953Z,14.17
2019-02-23T00:21:43.735Z,15.20
2019-02-23T00:24:14.723Z,15.47
2019-02-23T00:26:45.672Z,14.00
2019-02-23T00:29:16.731Z,14.93
2019-02-23T00:31:47.711Z,14.53
2019-02-23T00:34:18.773Z,14.40
2019-02-23T00:36:49.901Z,14.33
2019-02-23T00:39:20.847Z,14.73
2019-02-23T00:41:51.849Z,13.40
2019-02-23T00:44:22.848Z,14.97
2019-02-23T00:46:53.845Z,14.37
2019-02-23T00:49:35.537Z,17.10
2019-02-23T00:51:57.459Z,15.13
2019-02-23T00:54:28.202Z,15.50
2019-02-23T00:56:59.191Z,14.67
2019-02-23T00:59:29.976Z,16.00
2019-02-23T01:02:00.840Z,15.47
2019-02-23T01:04:31.594Z,15.10
2019-02-23T01:07:02.598Z,14.70
2019-02-23T01:09:33.346Z,14.73
2019-02-23T01:12:04.524Z,15.73
2019-02-23T01:14:35.338Z,18.00
2019-02-23T01:17:06.730Z,17.57
2019-02-23T01:19:47.445Z,16.27
2019-02-23T01:22:11.391Z,17.07
2019-02-23T01:24:42.133Z,16.63
2019-02-23T01:27:13.215Z,17.13
2019-02-23T01:29:43.974Z,16.10
2019-02-23T01:32:14.958Z,18.47
2019-02-23T01:34:45.929Z,15.43
2019-02-23T01:37:16.918Z,16.60
2019-02-23T01:39:47.982Z,15.73
2019-02-23T01:42:18.738Z,16.17
2019-02-23T01:44:49.743Z,17.20
2019-02-23T01:47:21.115Z,18.70
2019-02-23T01:49:58.962Z,18.07
2019-02-23T01:52:24.569Z,17.30
2019-02-23T01:54:55.572Z,18.00
2019-02-23T01:57:26.626Z,18.20
2019-02-23T01:59:58.056Z,17.80
2019-02-23T02:02:29.564Z,17.93
2019-02-23T02:05:00.389Z,18.23
2019-02-23T02:07:31.235Z,17.77
2019-02-23T02:10:04.362Z,18.80
2019-02-23T02:12:35.546Z,19.80
2019-02-23T02:15:11.230Z,17.77
2019-02-23T02:17:42.086Z,18.57
2019-02-23T02:20:13.179Z,17.30
2019-02-23T02:22:44.254Z,16.63
2019-02-23T02:25:15.200Z,19.07
2019-02-23T02:27:46.359Z,17.47
2019-02-23T02:30:18.431Z,17.50
2019-02-23T02:32:49.469Z,17.27
2019-02-23T02:35:20.191Z,16.40
2019-02-23T02:37:51.441Z,17.27
2019-02-23T02:40:23.460Z,17.87
2019-02-23T02:42:54.338Z,16.80
2019-02-23T02:45:25.090Z,16.70
2019-02-23T02:47:55.845Z,17.20
2019-02-23T02:50:27.172Z,18.77
2019-02-23T02:52:58.165Z,18.77
2019-02-23T02:55:28.916Z,18.13
2019-02-23T02:57:59.935Z,18.87
2019-02-23T03:00:31.370Z,19.63
2019-02-23T03:03:02.400Z,18.97
2019-02-23T03:05:33.637Z,18.27
2019-02-23T03:08:04.696Z,16.37
2019-02-23T03:10:35.947Z,17.30
2019-02-23T03:13:07.525Z,17.70
2019-02-23T03:15:38.498Z,16.57
2019-02-23T03:18:09.259Z,18.13
2019-02-23T03:20:40.287Z,17.07
2019-02-23T03:23:12.637Z,17.73
2019-02-23T03:25:44.653Z,17.40
2019-02-23T03:28:15.670Z,18.17
2019-02-23T03:30:46.494Z,18.23
2019-02-23T03:33:17.590Z,17.87
2019-02-23T03:35:48.334Z,17.67
2019-02-23T03:38:19.809Z,17.67
2019-02-23T03:40:50.819Z,18.43
2019-02-23T03:43:22.112Z,16.87
2019-02-23T03:45:53.139Z,17.20
2019-02-23T03:48:23.898Z,17.17
2019-02-23T03:50:54.993Z,20.57
2019-02-23T03:53:26.441Z,19.00
2019-02-23T03:55:58.045Z,18.90
2019-02-23T03:58:29.303Z,20.30
2019-02-23T04:01:00.706Z,18.30
2019-02-23T04:03:31.468Z,17.40
2019-02-23T04:06:02.209Z,18.90
2019-02-23T04:08:33.252Z,19.23
2019-02-23T04:11:04.225Z,18.30
2019-02-23T04:13:35.644Z,18.90
2019-02-23T04:16:06.385Z,18.73
2019-02-23T04:18:37.506Z,18.83
2019-02-23T04:21:08.795Z,18.83
2019-02-23T04:23:40.018Z,19.83
2019-02-23T04:26:10.994Z,19.97
2019-02-23T04:28:42.127Z,21.50
2019-02-23T04:31:13.113Z,18.93
2019-02-23T04:33:43.939Z,19.10
2019-02-23T04:36:14.723Z,20.43
2019-02-23T04:38:45.718Z,19.67
2019-02-23T04:41:17.198Z,19.13
2019-02-23T04:43:47.963Z,19.83
2019-02-23T04:46:18.849Z,21.00
2019-02-23T04:48:49.821Z,19.90
2019-02-23T04:51:21.062Z,21.40
2019-02-23T04:53:51.834Z,18.83
2019-02-23T04:56:22.693Z,20.90
2019-02-23T04:58:53.569Z,18.43
2019-02-23T05:01:24.842Z,20.60
2019-02-23T05:03:55.877Z,20.80
2019-02-23T05:06:26.778Z,22.00
2019-02-23T05:08:58.165Z,20.87
2019-02-23T05:11:28.932Z,19.67
2019-02-23T05:13:59.985Z,18.83
2019-02-23T05:16:31.281Z,20.77
2019-02-23T05:19:03.262Z,20.30
2019-02-23T05:21:34.017Z,20.90
2019-02-23T05:24:05.006Z,19.47
2019-02-23T05:26:35.755Z,19.37
2019-02-23T05:29:06.624Z,21.53
2019-02-23T05:31:37.569Z,20.37
2019-02-23T05:34:08.589Z,21.67
2019-02-23T05:36:39.902Z,20.17
2019-02-23T05:39:10.906Z,19.27
2019-02-23T05:41:41.839Z,19.83
2019-02-23T05:44:13.221Z,20.00
2019-02-23T05:46:44.335Z,20.03
2019-02-23T05:49:15.667Z,19.87
2019-02-23T05:51:46.727Z,23.60
2019-02-23T05:54:17.716Z,23.77
2019-02-23T05:56:48.772Z,20.73
2019-02-23T05:59:19.522Z,20.33
2019-02-23T06:01:50.754Z,23.07
2019-02-23T06:04:21.766Z,22.57
2019-02-23T06:06:52.827Z,22.33
2019-02-23T06:09:23.657Z,21.53
2019-02-23T06:11:54.664Z,21.97
2019-02-23T06:14:25.959Z,21.67
2019-02-23T06:16:56.778Z,19.00
2019-02-23T06:19:28.091Z,21.43
2019-02-23T06:21:59.310Z,21.77
2019-02-23T06:24:30.317Z,23.43
2019-02-23T06:27:01.562Z,24.17
2019-02-23T06:29:32.570Z,23.07
2019-02-23T06:32:03.450Z,21.63
2019-02-23T06:34:34.211Z,21.47
2019-02-23T06:37:05.433Z,21.03
2019-02-23T06:39:37.878Z,22.67
2019-02-23T06:42:08.885Z,23.37
2019-02-23T06:44:40.327Z,22.77
2019-02-23T06:47:11.731Z,23.70
2019-02-23T06:49:42.585Z,22.80
2019-02-23T06:52:14.073Z,22.90
2019-02-23T06:54:45.412Z,22.53
2019-02-23T06:57:16.194Z,22.53
2019-02-23T06:59:47.295Z,23.93
2019-02-23T07:02:18.046Z,22.50
2019-02-23T07:04:49.030Z,24.43
2019-02-23T07:07:19.916Z,23.80
2019-02-23T07:09:50.927Z,23.93
2019-02-23T07:12:21.678Z,23.63
2019-02-23T07:14:52.941Z,21.17
2019-02-23T07:17:23.683Z,24.57
2019-02-23T07:19:56.526Z,23.30
2019-02-23T07:22:27.783Z,23.27
2019-02-23T07:24:58.778Z,22.50
2019-02-23T07:27:29.534Z,23.17
2019-02-23T07:30:00.649Z,23.60
2019-02-23T07:32:31.503Z,23.97
2019-02-23T07:35:02.689Z,23.90
2019-02-23T07:37:33.481Z,22.07
2019-02-23T07:40:04.782Z,23.07
2019-02-23T07:42:35.568Z,20.50
2019-02-23T07:45:06.751Z,21.20
2019-02-23T07:47:37.775Z,20.03
2019-02-23T07:50:09.044Z,21.17
2019-02-23T07:52:39.972Z,20.67
2019-02-23T07:55:11.145Z,21.93
2019-02-23T07:57:42.087Z,19.53
2019-02-23T08:00:12.927Z,20.33
2019-02-23T08:02:44.389Z,20.10
2019-02-23T08:05:15.935Z,20.13
2019-02-23T08:07:46.684Z,21.07
2019-02-23T08:10:17.801Z,19.20
2019-02-23T08:12:48.633Z,18.83
2019-02-23T08:15:19.662Z,20.37
2019-02-23T08:17:50.547Z,19.30
2019-02-23T08:20:21.320Z,20.60
2019-02-23T08:22:52.338Z,20.50
2019-02-23T08:25:23.176Z,19.73
2019-02-23T08:27:54.178Z,21.40
2019-02-23T08:30:25.522Z,19.33
2019-02-23T08:32:56.380Z,19.40
2019-02-23T08:35:27.431Z,21.50
2019-02-23T08:37:58.478Z,19.93
2019-02-23T08:40:29.490Z,18.17
2019-02-23T08:43:00.532Z,19.73
2019-02-23T08:45:31.677Z,19.73
2019-02-23T08:48:03.129Z,18.77
2019-02-23T08:50:34.215Z,19.77
2019-02-23T08:53:05.211Z,19.90
2019-02-23T08:55:36.360Z,18.37
2019-02-23T08:58:07.105Z,20.53
2019-02-23T09:00:38.094Z,20.27
2019-02-23T09:03:09.146Z,21.67
2019-02-23T09:05:39.943Z,18.97
2019-02-23T09:08:10.769Z,19.60
2019-02-23T09:10:41.643Z,19.47
2019-02-23T09:13:12.886Z,19.37
2019-02-23T09:15:44.233Z,22.53
2019-02-23T09:18:15.495Z,19.00
2019-02-23T09:20:46.276Z,18.60
2019-02-23T09:23:17.325Z,18.73
2019-02-23T09:25:48.320Z,19.43
2019-02-23T09:28:19.316Z,19.13
2019-02-23T09:30:51.146Z,19.30
2019-02-23T09:33:22.137Z,19.03
2019-02-23T09:35:53.200Z,19.60
2019-02-23T09:38:24.197Z,19.07
2019-02-23T09:40:54.948Z,17.80
2019-02-23T09:43:27.173Z,18.17
2019-02-23T09:45:58.005Z,17.07
2019-02-23T09:48:29.073Z,16.60
2019-02-23T09:51:00.055Z,16.87
2019-02-23T09:53:31.386Z,16.40
2019-02-23T09:56:02.618Z,15.37
2019-02-23T09:58:33.811Z,15.60
2019-02-23T10:01:05.512Z,13.97
2019-02-23T10:03:36.276Z,16.43
2019-02-23T10:06:07.524Z,16.77
2019-02-23T10:08:38.642Z,17.17
2019-02-23T10:11:09.405Z,15.27
2019-02-23T10:13:41.035Z,13.53
2019-02-23T10:16:12.361Z,14.67
2019-02-23T10:18:43.403Z,13.93
2019-02-23T10:21:14.523Z,14.60
2019-02-23T10:23:45.309Z,13.70
2019-02-23T10:26:16.295Z,13.80
2019-02-23T10:28:47.364Z,12.77
2019-02-23T10:31:18.356Z,13.40
2019-02-23T10:33:49.514Z,14.53
2019-02-23T10:36:20.513Z,14.57
2019-02-23T10:38:51.590Z,12.53
2019-02-23T10:41:22.358Z,10.73
2019-02-23T10:43:53.327Z,9.23
2019-02-23T10:46:24.304Z,8.27
2019-02-23T10:48:55.153Z,8.23
2019-02-23T10:51:26.157Z,8.37
2019-02-23T10:53:56.996Z,8.10
2019-02-23T10:56:27.851Z,8.40
2019-02-23T10:58:59.072Z,7.70
2019-02-23T11:01:29.897Z,8.50
2019-02-23T11:04:00.860Z,7.53
2019-02-23T11:06:31.978Z,7.00
2019-02-23T11:09:04.336Z,7.33
2019-02-23T11:11:36.786Z,8.50
2019-02-23T11:14:07.741Z,7.30
2019-02-23T11:16:38.809Z,8.40
2019-02-23T11:19:09.949Z,7.20
2019-02-23T11:21:41.237Z,6.90
2019-02-23T11:24:12.275Z,6.90
2019-02-23T11:26:43.292Z,7.60
2019-02-23T11:29:14.052Z,6.87
2019-02-23T11:31:45.918Z,7.80
2019-02-23T11:34:17.331Z,6.10
2019-02-23T11:36:48.509Z,6.07
2019-02-23T11:39:19.323Z,7.03
2019-02-23T11:41:50.457Z,7.70
2019-02-23T11:44:21.194Z,6.60
2019-02-23T11:47:00.044Z,5.43
2019-02-23T11:49:24.409Z,5.30
2019-02-23T11:51:55.232Z,5.10
2019-02-23T11:54:26.267Z,7.17
2019-02-23T11:56:57.265Z,5.60
2019-02-23T11:59:28.290Z,5.50
2019-02-23T12:01:59.262Z,6.43
2019-02-23T12:04:30.050Z,5.20
2019-02-23T12:07:00.795Z,6.73
2019-02-23T12:09:31.562Z,6.27
2019-02-23T12:12:02.533Z,13.93
2019-02-23T12:14:33.510Z,5.73
2019-02-23T12:17:04.333Z,5.20
2019-02-23T12:19:35.596Z,5.10
2019-02-23T12:22:12.374Z,4.90
2019-02-23T12:24:39.333Z,9.43
2019-02-23T12:27:10.146Z,6.00
2019-02-23T12:29:41.182Z,5.50
2019-02-23T12:32:12.520Z,7.00
2019-02-23T12:34:43.510Z,7.17
2019-02-23T12:37:14.338Z,5.83
2019-02-23T12:39:45.285Z,5.93
2019-02-23T12:42:16.023Z,5.77
2019-02-23T12:44:47.256Z,8.50
2019-02-23T12:47:18.111Z,5.57
2019-02-23T12:49:48.883Z,6.00
2019-02-23T12:52:19.944Z,10.00
2019-02-23T12:54:51.304Z,6.60
2019-02-23T12:57:22.332Z,7.07
2019-02-23T12:59:53.383Z,7.73
2019-02-23T13:02:24.129Z,6.03
2019-02-23T13:04:55.225Z,6.97
2019-02-23T13:07:26.063Z,7.53
2019-02-23T13:09:57.336Z,6.93
2019-02-23T13:13:05.659Z,6.10
2019-02-23T13:16:03.493Z,5.93
2019-02-23T13:19:20.991Z,6.60
2019-02-23T13:22:05.924Z,6.97
2019-02-23T13:25:05.869Z,8.43
2019-02-23T13:28:14.668Z,8.63
2019-02-23T13:31:34.109Z,5.97
2019-02-23T13:35:07.861Z,6.73
2019-02-23T13:38:06.527Z,7.80
2019-02-23T13:41:08.110Z,6.40
2019-02-23T13:44:28.233Z,7.73
2019-02-23T13:47:50.347Z,7.37
2019-02-23T13:51:09.412Z,7.27
2019-02-23T13:54:07.532Z,7.07
2019-02-23T13:57:22.350Z,8.50
2019-02-23T14:00:18.081Z,10.10
2019-02-23T14:03:51.857Z,6.60
2019-02-23T14:06:59.738Z,8.37
2019-02-23T14:10:10.479Z,6.40
2019-02-23T14:12:51.536Z,6.63
2019-02-23T14:15:44.352Z,7.83
2019-02-23T14:18:47.237Z,7.10
2019-02-23T14:22:13.300Z,8.13
2019-02-23T14:25:18.134Z,7.30
2019-02-23T14:28:24.187Z,7.83
2019-02-23T14:31:36.849Z,8.93
2019-02-23T14:34:34.094Z,7.37
2019-02-23T14:37:29.933Z,8.13
2019-02-23T14:40:44.274Z,7.80
2019-02-23T14:43:46.050Z,9.43
2019-02-23T14:46:58.417Z,8.00
2019-02-23T14:49:38.191Z,7.50
2019-02-23T14:52:35.039Z,7.10
2019-02-23T14:55:26.771Z,8.67
2019-02-23T14:58:25.874Z,6.53
2019-02-23T15:01:25.751Z,8.20
2019-02-23T15:04:45.404Z,9.33
2019-02-23T15:07:47.758Z,7.73
2019-02-23T15:10:59.299Z,8.40
2019-02-23T15:14:05.367Z,7.60
2019-02-23T15:17:19.053Z,8.30
2019-02-23T15:20:15.703Z,9.20
2019-02-23T15:23:25.086Z,7.87
2019-02-23T15:26:49.080Z,8.50
2019-02-23T15:29:48.131Z,11.70
2019-02-23T15:32:47.623Z,8.67
2019-02-23T15:36:10.311Z,7.63
2019-02-23T15:39:25.867Z,8.67
2019-02-23T15:42:25.924Z,9.93
2019-02-23T15:45:52.422Z,8.73
2019-02-23T15:48:44.145Z,12.27
2019-02-23T15:51:15.587Z,8.87
2019-02-23T15:53:46.631Z,9.27
2019-02-23T15:56:17.350Z,9.10
2019-02-23T15:58:48.394Z,9.60
2019-02-23T16:01:19.595Z,9.00
2019-02-23T16:03:50.675Z,10.67
2019-02-23T16:06:21.746Z,11.07
2019-02-23T16:08:52.944Z,10.30
2019-02-23T16:11:23.786Z,9.83
2019-02-23T16:13:54.600Z,9.00
2019-02-23T16:16:25.572Z,12.03
2019-02-23T16:18:56.301Z,10.53
2019-02-23T16:21:27.611Z,11.27
2019-02-23T16:23:58.798Z,11.73
2019-02-23T16:26:29.892Z,9.27
2019-02-23T16:29:01.024Z,10.67
2019-02-23T16:31:31.791Z,11.67
2019-02-23T16:34:02.539Z,10.30
2019-02-23T16:36:33.620Z,9.83
2019-02-23T16:39:09.520Z,10.57
2019-02-23T16:41:42.109Z,9.33
2019-02-23T16:44:13.176Z,11.27
2019-02-23T16:46:46.378Z,10.53
2019-02-23T16:49:17.548Z,10.33
2019-02-23T16:51:49.224Z,10.90
2019-02-23T16:54:19.983Z,11.83
2019-02-23T16:56:50.749Z,10.47
2019-02-23T16:59:21.836Z,12.57
2019-02-23T17:01:52.738Z,10.30
2019-02-23T17:04:24.333Z,9.53
2019-02-23T17:06:55.414Z,11.23
2019-02-23T17:09:26.269Z,12.90
2019-02-23T17:11:57.026Z,10.20
2019-02-23T17:14:27.834Z,12.00
2019-02-23T17:16:58.927Z,11.00
2019-02-23T17:19:29.966Z,11.47
2019-02-23T17:22:01.665Z,18.53
2019-02-23T17:24:32.874Z,16.37
2019-02-23T17:27:03.906Z,16.13
2019-02-23T17:29:34.820Z,12.93
2019-02-23T17:32:05.894Z,12.07
2019-02-23T17:34:36.938Z,11.10
2019-02-23T17:37:07.704Z,12.77
2019-02-23T17:39:38.448Z,13.63
2019-02-23T17:42:09.568Z,16.33
2019-02-23T17:44:40.716Z,10.50
2019-02-23T17:47:11.466Z,10.77
2019-02-23T17:49:42.432Z,12.70
2019-02-23T17:52:13.241Z,12.33
2019-02-23T17:54:44.480Z,11.90
2019-02-23T17:57:15.460Z,13.17
2019-02-23T17:59:46.430Z,10.67
2019-02-23T18:02:17.471Z,11.33
2019-02-23T18:04:48.216Z,10.70
2019-02-23T18:07:20.309Z,11.50
2019-02-23T18:09:52.545Z,10.10
2019-02-23T18:12:23.389Z,12.33
2019-02-23T18:14:54.431Z,11.40
2019-02-23T18:17:25.261Z,13.00
2019-02-23T18:19:56.912Z,11.73
2019-02-23T18:22:28.204Z,11.37
2019-02-23T18:24:59.045Z,11.67
2019-02-23T18:27:30.151Z,11.83
2019-02-23T18:30:10.758Z,12.67
2019-02-23T18:32:34.854Z,9.80
2019-02-23T18:35:05.905Z,11.33
2019-02-23T18:37:36.798Z,9.77
2019-02-23T18:40:07.777Z,12.13
2019-02-23T18:42:38.997Z,9.67
2019-02-23T18:45:09.975Z,11.27
2019-02-23T18:47:40.792Z,9.77
2019-02-23T18:50:11.672Z,10.40
2019-02-23T18:52:42.553Z,11.50
2019-02-23T18:55:13.441Z,10.13
2019-02-23T18:57:44.538Z,12.33
2019-02-23T19:00:23.997Z,10.83
2019-02-23T19:02:48.341Z,10.10
2019-02-23T19:05:19.958Z,9.80
2019-02-23T19:07:51.321Z,9.33
2019-02-23T19:10:22.696Z,10.77
2019-02-23T19:12:54.173Z,10.30
2019-02-23T19:15:25.224Z,10.07
2019-02-23T19:17:56.239Z,10.07
2019-02-23T19:20:27.139Z,8.83
2019-02-23T19:22:58.297Z,11.73
2019-02-23T19:25:30.115Z,9.47
2019-02-23T19:28:01.218Z,9.60
2019-02-23T19:30:32.422Z,10.70
2019-02-23T19:33:03.767Z,8.20
2019-02-23T19:35:34.832Z,7.73
2019-02-23T19:38:05.606Z,8.47
2019-02-23T19:40:36.965Z,8.10
2019-02-23T19:43:07.957Z,16.70
2019-02-23T19:45:39.076Z,10.27
2019-02-23T19:48:10.144Z,8.70
2019-02-23T19:50:44.352Z,11.13
2019-02-23T19:53:15.827Z,6.80
2019-02-23T19:55:46.917Z,8.13
2019-02-23T19:58:18.367Z,8.80
2019-02-23T20:00:49.109Z,7.37
2019-02-23T20:03:21.624Z,33.63
2019-02-23T20:05:52.975Z,13.90
2019-02-23T20:08:24.639Z,7.50
2019-02-23T20:10:55.837Z,7.63
2019-02-23T20:13:27.811Z,8.67
2019-02-23T20:15:58.544Z,6.63
2019-02-23T20:18:29.352Z,5.53
2019-02-23T20:21:00.155Z,8.57
2019-02-23T20:23:31.233Z,7.43
2019-02-23T20:26:02.196Z,7.40
2019-02-23T20:28:33.179Z,7.27
2019-02-23T20:31:03.907Z,6.63
2019-02-23T20:33:34.659Z,5.60
2019-02-23T20:36:05.871Z,5.53
2019-02-23T20:38:36.916Z,6.10
2019-02-23T20:41:08.119Z,6.90
2019-02-23T20:43:39.440Z,7.10
2019-02-23T20:46:11.261Z,7.87
2019-02-23T20:48:42.283Z,8.00
2019-02-23T20:51:13.021Z,6.07
2019-02-23T20:53:44.437Z,5.90
2019-02-23T20:56:15.168Z,6.13
2019-02-23T20:58:46.140Z,5.60
2019-02-23T21:01:17.107Z,6.53
2019-02-23T21:03:47.865Z,7.20
2019-02-23T21:06:18.879Z,5.40
2019-02-23T21:08:49.641Z,9.37
2019-02-23T21:11:20.364Z,7.50
2019-02-23T21:13:51.748Z,5.47
2019-02-23T21:16:22.730Z,5.57
2019-02-23T21:18:53.513Z,7.10
2019-02-23T21:21:24.484Z,7.17
2019-02-23T21:23:55.235Z,5.63
2019-02-23T21:26:26.318Z,6.33
2019-02-23T21:28:57.528Z,5.97
2019-02-23T21:31:28.270Z,6.33
2019-02-23T21:33:59.372Z,6.97
2019-02-23T21:36:30.109Z,5.07
2019-02-23T21:39:01.528Z,7.23
2019-02-23T21:41:34.221Z,6.40
2019-02-23T21:44:05.448Z,4.80
2019-02-23T21:46:36.127Z,5.17
2019-02-23T21:49:07.261Z,4.57
2019-02-23T21:51:37.995Z,4.97
2019-02-23T21:54:10.663Z,4.70
2019-02-23T21:56:41.844Z,8.37
2019-02-23T21:59:12.584Z,5.40
2019-02-23T22:01:43.664Z,4.40
2019-02-23T22:04:14.487Z,4.80
2019-02-23T22:06:45.868Z,5.40
2019-02-23T22:09:16.826Z,6.63
2019-02-23T22:11:47.554Z,4.40
2019-02-23T22:14:18.526Z,4.47
2019-02-23T22:16:49.518Z,7.70
2019-02-23T22:19:20.738Z,6.07
2019-02-23T22:21:51.474Z,5.17
2019-02-23T22:24:22.552Z,4.50
2019-02-23T22:26:53.282Z,5.13
2019-02-23T22:29:24.274Z,3.30
2019-02-23T22:31:55.244Z,4.43
2019-02-23T22:34:25.989Z,3.80
2019-02-23T22:36:57.289Z,3.70
2019-02-23T22:39:28.035Z,3.50
2019-02-23T22:41:58.950Z,4.53
2019-02-23T22:44:30.047Z,3.50
2019-02-23T22:47:01.099Z,3.00
2019-02-23T22:49:31.860Z,5.10
2019-02-23T22:52:02.613Z,4.10
2019-02-23T22:54:33.386Z,3.07
2019-02-23T22:57:04.473Z,2.53
2019-02-23T22:59:35.270Z,3.00
2019-02-23T23:02:06.017Z,3.23
2019-02-23T23:04:37.408Z,3.67
2019-02-23T23:07:08.815Z,4.10
2019-02-23T23:09:39.853Z,3.87
2019-02-23T23:12:10.904Z,3.00
2019-02-23T23:14:41.944Z,4.70
2019-02-23T23:17:13.261Z,3.33
2019-02-23T23:19:44.003Z,2.90
2019-02-23T23:22:15.229Z,4.30
2019-02-23T23:24:45.967Z,3.47
2019-02-23T23:27:17.111Z,3.90
2019-02-23T23:29:48.321Z,3.70
2019-02-23T23:32:20.433Z,4.40
2019-02-23T23:34:51.180Z,3.73
2019-02-23T23:37:21.938Z,4.37
2019-02-23T23:39:53.778Z,3.07
2019-02-23T23:42:24.606Z,4.77
2019-02-23T23:44:55.873Z,4.13
2019-02-23T23:47:26.624Z,4.87
2019-02-23T23:49:57.461Z,3.53
2019-02-23T23:52:28.257Z,3.50
2019-02-23T23:54:59.749Z,4.13
2019-02-23T23:57:30.978Z,4.40
